createdAt,value
2022-11-01T00:02:00.802Z,7.53
2022-11-01T00:04:28.893Z,9.00
2022-11-01T00:06:56.713Z,9.30
2022-11-01T00:09:25.911Z,7.63
2022-11-01T00:11:54.046Z,6.87
2022-11-01T00:14:22.402Z,11.47
2022-11-01T00:16:50.965Z,7.30
2022-11-01T00:19:20.679Z,10.50
2022-11-01T00:21:48.589Z,8.30
2022-11-01T00:24:16.791Z,9.07
2022-11-01T00:26:46.141Z,8.13
2022-11-01T00:29:14.455Z,8.47
2022-11-01T00:31:42.346Z,7.00
2022-11-01T00:34:10.247Z,9.07
2022-11-01T00:36:38.178Z,6.90
2022-11-01T00:39:06.760Z,7.77
2022-11-01T00:41:37.379Z,6.77
2022-11-01T00:44:06.921Z,9.23
2022-11-01T00:46:35.262Z,6.17
2022-11-01T00:49:03.432Z,7.37
2022-11-01T00:51:31.263Z,6.77
2022-11-01T00:53:59.061Z,10.13
2022-11-01T00:56:26.880Z,6.87
2022-11-01T00:58:54.939Z,6.40
2022-11-01T01:01:24.369Z,9.60
2022-11-01T01:03:52.409Z,5.87
2022-11-01T01:06:20.456Z,7.13
2022-11-01T01:08:48.301Z,5.00
2022-11-01T01:11:16.968Z,11.07
2022-11-01T01:13:44.845Z,5.43
2022-11-01T01:16:14.097Z,7.93
2022-11-01T01:18:43.416Z,5.33
2022-11-01T01:21:11.763Z,7.63
2022-11-01T01:23:39.579Z,6.43
2022-11-01T01:26:08.780Z,7.90
2022-11-01T01:28:41.842Z,5.17
2022-11-01T01:31:13.861Z,8.47
2022-11-01T01:33:43.224Z,8.50
2022-11-01T01:36:11.246Z,6.10
2022-11-01T01:38:39.549Z,9.97
2022-11-01T01:41:25.113Z,5.50
2022-11-01T01:43:53.028Z,4.60
2022-11-01T01:46:20.932Z,6.37
2022-11-01T01:48:56.351Z,8.03
2022-11-01T01:51:27.631Z,8.27
2022-11-01T01:53:58.174Z,9.10
2022-11-01T01:56:32.077Z,6.40
2022-11-01T01:59:04.518Z,7.63
2022-11-01T02:01:33.691Z,6.00
2022-11-01T02:04:03.578Z,5.60
2022-11-01T02:06:34.481Z,4.60
2022-11-01T02:09:05.108Z,5.87
2022-11-01T02:11:33.035Z,5.23
2022-11-01T02:14:01.463Z,6.17
2022-11-01T02:16:51.454Z,6.27
2022-11-01T02:19:55.411Z,6.13
2022-11-01T02:22:36.281Z,3.93
2022-11-01T02:25:22.579Z,4.87
2022-11-01T02:28:09.930Z,6.77
2022-11-01T02:30:46.088Z,7.23
2022-11-01T02:33:23.841Z,6.17
2022-11-01T02:36:01.202Z,9.60
2022-11-01T02:38:35.385Z,4.97
2022-11-01T02:41:09.837Z,5.53
2022-11-01T02:43:46.148Z,8.63
2022-11-01T02:46:32.892Z,7.83
2022-11-01T02:49:02.456Z,8.87
2022-11-01T02:51:31.179Z,5.17
2022-11-01T02:54:02.479Z,7.37
2022-11-01T02:56:30.825Z,6.50
2022-11-01T02:58:59.330Z,6.47
2022-11-01T03:01:30.959Z,5.67
2022-11-01T03:04:00.008Z,9.73
2022-11-01T03:06:35.779Z,9.10
2022-11-01T03:09:08.024Z,9.20
2022-11-01T03:11:44.592Z,6.93
2022-11-01T03:14:22.213Z,7.63
2022-11-01T03:16:58.344Z,5.47
2022-11-01T03:19:36.012Z,4.90
2022-11-01T03:22:11.555Z,5.87
2022-11-01T03:24:46.377Z,6.50
2022-11-01T03:27:18.941Z,3.53
2022-11-01T03:29:57.194Z,6.17
2022-11-01T03:32:31.188Z,4.37
2022-11-01T03:35:02.316Z,8.70
2022-11-01T03:37:33.830Z,7.70
2022-11-01T03:40:05.591Z,6.10
2022-11-01T03:42:34.692Z,8.07
2022-11-01T03:45:08.351Z,6.47
2022-11-01T03:47:36.575Z,8.50
2022-11-01T03:50:16.128Z,7.93
2022-11-01T03:52:45.695Z,6.50
2022-11-01T03:55:20.022Z,6.23
2022-11-01T03:57:48.552Z,6.90
2022-11-01T04:00:18.416Z,7.37
2022-11-01T04:02:46.249Z,9.77
2022-11-01T04:05:14.265Z,5.67
2022-11-01T04:07:43.117Z,6.27
2022-11-01T04:10:13.621Z,6.67
2022-11-01T04:12:41.853Z,4.70
2022-11-01T04:15:37.439Z,5.50
2022-11-01T04:18:25.191Z,6.17
2022-11-01T04:20:54.022Z,6.10
2022-11-01T04:23:22.062Z,4.93
2022-11-01T04:25:51.285Z,6.17
2022-11-01T04:28:19.451Z,8.37
2022-11-01T04:30:47.484Z,6.70
2022-11-01T04:33:15.310Z,5.07
2022-11-01T04:35:43.153Z,5.60
2022-11-01T04:38:11.966Z,6.47
2022-11-01T04:40:40.933Z,6.13
2022-11-01T04:43:10.296Z,6.20
2022-11-01T04:45:38.262Z,7.23
2022-11-01T04:48:08.087Z,5.50
2022-11-01T04:50:36.913Z,7.13
2022-11-01T04:53:05.278Z,4.80
2022-11-01T04:55:33.511Z,6.17
2022-11-01T04:58:01.393Z,5.10
2022-11-01T05:00:32.114Z,5.23
2022-11-01T05:03:04.216Z,4.50
2022-11-01T05:05:33.001Z,9.53
2022-11-01T05:10:36.583Z,5.87
2022-11-01T05:13:05.619Z,5.13
2022-11-01T05:15:39.975Z,6.73
2022-11-01T05:18:11.733Z,6.67
2022-11-01T05:20:39.677Z,5.47
2022-11-01T05:23:07.837Z,5.50
2022-11-01T05:25:38.084Z,6.47
2022-11-01T05:28:08.465Z,6.73
2022-11-01T05:30:38.621Z,6.77
2022-11-01T05:33:07.823Z,5.53
2022-11-01T05:35:37.116Z,6.17
2022-11-01T05:38:06.047Z,4.07
2022-11-01T05:40:34.223Z,6.13
2022-11-01T05:43:02.334Z,6.03
2022-11-01T05:45:30.421Z,5.47
2022-11-01T05:48:04.425Z,6.60
2022-11-01T05:50:32.504Z,6.20
2022-11-01T05:53:08.490Z,4.43
2022-11-01T05:55:36.935Z,4.20
2022-11-01T05:58:04.892Z,6.27
2022-11-01T06:00:33.276Z,8.33
2022-11-01T06:03:02.338Z,5.13
2022-11-01T06:05:32.437Z,5.13
2022-11-01T06:08:02.605Z,7.70
2022-11-01T06:10:30.886Z,4.60
2022-11-01T06:12:59.283Z,6.33
2022-11-01T06:15:27.481Z,5.13
2022-11-01T06:17:59.306Z,4.77
2022-11-01T06:20:27.852Z,3.90
2022-11-01T06:22:57.243Z,6.50
2022-11-01T06:25:25.685Z,9.67
2022-11-01T06:27:54.411Z,7.03
2022-11-01T06:30:22.700Z,5.60
2022-11-01T06:32:50.571Z,6.30
2022-11-01T06:35:18.646Z,7.33
2022-11-01T06:37:47.295Z,6.60
2022-11-01T06:40:16.688Z,5.97
2022-11-01T06:42:46.451Z,5.67
2022-11-01T06:45:14.845Z,5.50
2022-11-01T06:47:53.578Z,4.03
2022-11-01T06:50:21.523Z,6.13
2022-11-01T06:52:49.476Z,8.23
2022-11-01T06:55:18.985Z,8.90
2022-11-01T06:57:56.036Z,8.97
2022-11-01T07:00:24.742Z,5.83
2022-11-01T07:03:00.646Z,4.83
2022-11-01T07:05:31.654Z,5.00
2022-11-01T07:08:03.265Z,5.30
2022-11-01T07:10:33.032Z,5.50
2022-11-01T07:13:01.229Z,9.27
2022-11-01T07:15:30.012Z,5.03
2022-11-01T07:17:58.235Z,4.70
2022-11-01T07:20:27.441Z,8.40
2022-11-01T07:23:00.688Z,8.63
2022-11-01T07:25:30.212Z,6.37
2022-11-01T07:27:59.874Z,5.23
2022-11-01T07:30:28.826Z,4.13
2022-11-01T07:32:57.378Z,8.27
2022-11-01T07:35:26.248Z,5.60
2022-11-01T07:37:54.693Z,5.77
2022-11-01T07:40:27.603Z,14.07
2022-11-01T07:42:58.292Z,9.23
2022-11-01T07:45:30.160Z,8.57
2022-11-01T07:48:02.347Z,6.37
2022-11-01T07:50:31.419Z,7.23
2022-11-01T07:53:02.800Z,5.97
2022-11-01T07:55:30.878Z,4.67
2022-11-01T07:57:59.307Z,6.37
2022-11-01T08:00:29.748Z,7.20
2022-11-01T08:03:02.543Z,7.67
2022-11-01T08:05:31.638Z,10.07
2022-11-01T08:08:00.276Z,7.63
2022-11-01T08:10:29.844Z,8.47
2022-11-01T08:13:05.368Z,7.07
2022-11-01T08:15:35.298Z,6.07
2022-11-01T08:18:03.665Z,9.93
2022-11-01T08:20:31.893Z,12.30
2022-11-01T08:22:59.966Z,7.27
2022-11-01T08:25:28.196Z,6.50
2022-11-01T08:27:56.118Z,11.33
2022-11-01T08:30:24.171Z,8.40
2022-11-01T08:32:59.772Z,7.83
2022-11-01T08:35:28.312Z,10.33
2022-11-01T08:37:58.999Z,9.97
2022-11-01T08:40:28.625Z,9.03
2022-11-01T08:42:56.811Z,6.57
2022-11-01T08:45:25.354Z,7.67
2022-11-01T08:47:59.762Z,10.33
2022-11-01T08:50:28.717Z,11.23
2022-11-01T08:52:56.838Z,9.50
2022-11-01T08:55:37.405Z,11.50
2022-11-01T08:58:06.630Z,13.37
2022-11-01T09:00:35.156Z,11.43
2022-11-01T09:03:02.987Z,9.23
2022-11-01T09:05:31.675Z,9.50
2022-11-01T09:08:00.720Z,6.47
2022-11-01T09:10:30.623Z,8.97
2022-11-01T09:13:00.731Z,7.17
2022-11-01T09:15:29.142Z,10.23
2022-11-01T09:17:57.210Z,7.17
2022-11-01T09:20:26.533Z,11.63
2022-11-01T09:22:54.437Z,8.80
2022-11-01T09:25:22.325Z,10.93
2022-11-01T09:27:50.332Z,7.80
2022-11-01T09:30:20.032Z,5.97
2022-11-01T09:32:47.992Z,7.90
2022-11-01T09:35:15.988Z,10.07
2022-11-01T09:37:44.166Z,6.93
2022-11-01T09:40:14.621Z,11.83
2022-11-01T09:42:45.322Z,9.57
2022-11-01T09:45:18.713Z,6.70
2022-11-01T09:47:51.324Z,5.90
2022-11-01T09:50:23.611Z,5.47
2022-11-01T09:52:51.923Z,8.97
2022-11-01T09:55:27.205Z,7.03
2022-11-01T09:58:03.145Z,5.27
2022-11-01T10:00:36.396Z,6.47
2022-11-01T10:03:22.840Z,7.50
2022-11-01T10:06:04.474Z,6.23
2022-11-01T10:08:49.372Z,5.60
2022-11-01T10:11:35.424Z,6.57
2022-11-01T10:14:12.155Z,6.37
2022-11-01T10:16:42.601Z,4.60
2022-11-01T10:19:15.359Z,9.30
2022-11-01T10:21:49.079Z,7.80
2022-11-01T10:24:25.864Z,6.47
2022-11-01T10:26:59.574Z,7.90
2022-11-01T10:29:34.549Z,6.37
2022-11-01T10:32:04.940Z,7.27
2022-11-01T10:34:39.608Z,8.23
2022-11-01T10:37:16.412Z,7.33
2022-11-01T10:39:56.425Z,7.23
2022-11-01T10:42:29.385Z,8.77
2022-11-01T10:45:01.483Z,4.73
2022-11-01T10:47:32.311Z,5.53
2022-11-01T10:50:07.550Z,4.33
2022-11-01T10:52:46.219Z,5.67
2022-11-01T10:55:19.549Z,7.87
2022-11-01T10:57:53.117Z,6.17
2022-11-01T11:00:23.325Z,4.60
2022-11-01T11:02:53.976Z,5.20
2022-11-01T11:05:25.202Z,4.40
2022-11-01T11:07:53.222Z,3.80
2022-11-01T11:10:24.843Z,3.40
2022-11-01T11:12:57.301Z,4.67
2022-11-01T11:15:36.393Z,5.70
2022-11-01T11:18:09.110Z,2.40
2022-11-01T11:20:38.432Z,4.03
2022-11-01T11:23:12.763Z,4.03
2022-11-01T11:25:43.001Z,4.20
2022-11-01T11:28:24.467Z,5.17
2022-11-01T11:30:52.540Z,6.17
2022-11-01T11:33:21.167Z,3.50
2022-11-01T11:35:59.993Z,3.60
2022-11-01T11:38:52.024Z,2.47
2022-11-01T11:41:31.622Z,4.50
2022-11-01T11:44:00.822Z,3.43
2022-11-01T11:46:29.417Z,6.13
2022-11-01T11:49:01.092Z,3.13
2022-11-01T11:51:31.787Z,5.17
2022-11-01T11:54:22.745Z,2.10
2022-11-01T11:56:53.509Z,2.57
2022-11-01T11:59:29.447Z,3.27
2022-11-01T12:02:00.288Z,2.97
2022-11-01T12:04:35.498Z,4.30
2022-11-01T12:07:06.826Z,5.13
2022-11-01T12:09:39.765Z,3.00
2022-11-01T12:12:09.168Z,2.10
2022-11-01T12:14:39.677Z,1.80
2022-11-01T12:17:31.369Z,4.33
2022-11-01T12:20:13.985Z,2.93
2022-11-01T12:22:49.571Z,3.27
2022-11-01T12:25:22.574Z,2.83
2022-11-01T12:27:58.982Z,3.47
2022-11-01T12:30:31.067Z,2.50
2022-11-01T12:33:00.323Z,4.27
2022-11-01T12:35:32.561Z,2.60
2022-11-01T12:38:29.150Z,4.50
2022-11-01T12:41:01.628Z,3.50
2022-11-01T12:43:36.753Z,2.83
2022-11-01T12:46:13.834Z,2.97
2022-11-01T12:48:43.980Z,3.67
2022-11-01T12:51:17.656Z,4.10
2022-11-01T12:53:54.157Z,5.83
2022-11-01T12:56:22.133Z,4.40
2022-11-01T12:58:53.911Z,6.43
2022-11-01T13:01:32.094Z,2.93
2022-11-01T13:04:13.973Z,4.10
2022-11-01T13:07:00.218Z,5.60
2022-11-01T13:09:39.221Z,3.80
2022-11-01T13:12:13.339Z,4.00
2022-11-01T13:14:53.345Z,6.33
2022-11-01T13:17:26.749Z,2.40
2022-11-01T13:20:03.835Z,2.83
2022-11-01T13:22:39.807Z,4.07
2022-11-01T13:25:18.563Z,3.93
2022-11-01T13:27:53.176Z,7.00
2022-11-01T13:30:21.748Z,7.83
2022-11-01T13:32:55.692Z,3.33
2022-11-01T13:35:55.569Z,4.63
2022-11-01T13:38:33.214Z,4.20
2022-11-01T13:41:10.975Z,3.30
2022-11-01T13:43:42.971Z,3.23
2022-11-01T13:46:32.781Z,4.27
2022-11-01T13:49:26.730Z,5.50
2022-11-01T13:52:01.339Z,4.77
2022-11-01T13:54:33.691Z,3.27
2022-11-01T13:57:12.362Z,6.30
2022-11-01T13:59:45.849Z,3.47
2022-11-01T14:02:57.080Z,5.07
2022-11-01T14:05:38.499Z,3.27
2022-11-01T14:08:37.891Z,4.77
2022-11-01T14:11:06.444Z,4.47
2022-11-01T14:13:38.435Z,2.93
2022-11-01T14:16:28.075Z,5.27
2022-11-01T14:19:20.469Z,3.43
2022-11-01T14:21:53.518Z,4.97
2022-11-01T14:24:25.307Z,7.20
2022-11-01T14:27:19.138Z,3.60
2022-11-01T14:29:51.961Z,3.00
2022-11-01T14:32:22.474Z,3.57
2022-11-01T14:35:04.111Z,3.60
2022-11-01T14:37:39.414Z,6.33
2022-11-01T14:40:37.909Z,4.73
2022-11-01T14:43:17.992Z,3.90
2022-11-01T14:45:50.165Z,4.13
2022-11-01T14:48:24.748Z,3.17
2022-11-01T14:51:02.541Z,4.70
2022-11-01T14:53:34.018Z,4.57
2022-11-01T14:56:15.410Z,3.90
2022-11-01T14:58:46.684Z,3.27
2022-11-01T15:01:18.096Z,6.40
2022-11-01T15:03:54.909Z,2.77
2022-11-01T15:06:24.956Z,3.57
2022-11-01T15:08:53.223Z,5.80
2022-11-01T15:11:21.085Z,4.60
2022-11-01T15:13:49.727Z,3.17
2022-11-01T15:16:23.125Z,6.70
2022-11-01T15:18:55.921Z,6.73
2022-11-01T15:21:30.680Z,4.93
2022-11-01T15:24:02.556Z,5.27
2022-11-01T15:26:33.943Z,5.33
2022-11-01T15:29:05.143Z,3.87
2022-11-01T15:31:50.390Z,5.47
2022-11-01T15:34:23.949Z,6.30
2022-11-01T15:36:52.425Z,6.60
2022-11-01T15:39:23.268Z,4.20
2022-11-01T15:41:53.908Z,3.37
2022-11-01T15:44:23.783Z,4.90
2022-11-01T15:46:56.402Z,4.20
2022-11-01T15:49:29.283Z,3.73
2022-11-01T15:52:01.623Z,5.13
2022-11-01T15:54:40.962Z,4.77
2022-11-01T15:57:13.596Z,4.10
2022-11-01T15:59:51.208Z,5.53
2022-11-01T16:02:28.577Z,4.00
2022-11-01T16:04:57.713Z,3.90
2022-11-01T16:07:27.504Z,5.33
2022-11-01T16:09:58.582Z,2.87
2022-11-01T16:12:30.788Z,4.83
2022-11-01T16:15:01.484Z,3.40
2022-11-01T16:17:34.992Z,4.03
2022-11-01T16:20:04.974Z,4.47
2022-11-01T16:22:47.534Z,4.83
2022-11-01T16:25:20.413Z,8.43
2022-11-01T16:28:03.454Z,5.80
2022-11-01T16:30:45.268Z,5.20
2022-11-01T16:33:20.828Z,3.87
2022-11-01T16:35:50.590Z,5.10
2022-11-01T16:38:26.230Z,6.30
2022-11-01T16:40:56.022Z,5.63
2022-11-01T16:43:24.442Z,6.87
2022-11-01T16:45:52.803Z,3.83
2022-11-01T16:48:25.283Z,4.37
2022-11-01T16:50:54.289Z,7.43
2022-11-01T16:53:22.353Z,4.87
2022-11-01T16:55:50.409Z,3.80
2022-11-01T16:58:20.866Z,3.63
2022-11-01T17:00:56.264Z,3.37
2022-11-01T17:03:26.865Z,6.93
2022-11-01T17:05:56.313Z,7.30
2022-11-01T17:08:29.352Z,5.93
2022-11-01T17:10:57.569Z,6.57
2022-11-01T17:13:25.600Z,5.13
2022-11-01T17:15:53.770Z,5.47
2022-11-01T17:18:29.081Z,4.70
2022-11-01T17:20:59.256Z,4.93
2022-11-01T17:23:28.682Z,3.90
2022-11-01T17:25:57.347Z,4.43
2022-11-01T17:28:26.089Z,5.73
2022-11-01T17:30:54.610Z,8.70
2022-11-01T17:33:22.594Z,6.43
2022-11-01T17:35:53.218Z,6.60
2022-11-01T17:38:30.086Z,5.80
2022-11-01T17:40:59.190Z,5.03
2022-11-01T17:43:27.100Z,6.43
2022-11-01T17:45:55.133Z,5.63
2022-11-01T17:48:23.022Z,6.20
2022-11-01T17:50:52.167Z,4.30
2022-11-01T17:53:20.052Z,7.47
2022-11-01T17:55:48.133Z,4.50
2022-11-01T17:58:15.938Z,4.17
2022-11-01T18:00:44.145Z,5.60
2022-11-01T18:03:14.767Z,5.57
2022-11-01T18:05:42.870Z,6.73
2022-11-01T18:08:17.956Z,6.53
2022-11-01T18:10:56.486Z,4.53
2022-11-01T18:13:36.375Z,5.23
2022-11-01T18:16:09.812Z,5.73
2022-11-01T18:19:01.686Z,5.40
2022-11-01T18:21:33.398Z,6.10
2022-11-01T18:24:08.005Z,7.63
2022-11-01T18:26:38.412Z,5.10
2022-11-01T18:29:17.124Z,5.20
2022-11-01T18:31:48.088Z,4.93
2022-11-01T18:34:31.929Z,6.10
2022-11-01T18:37:04.182Z,7.30
2022-11-01T18:39:41.092Z,7.50
2022-11-01T18:42:11.131Z,8.10
2022-11-01T18:44:39.571Z,8.07
2022-11-01T18:47:13.473Z,8.30
2022-11-01T18:49:41.210Z,4.93
2022-11-01T18:52:10.794Z,8.70
2022-11-01T18:54:47.672Z,6.30
2022-11-01T18:57:18.284Z,4.97
2022-11-01T18:59:49.353Z,7.43
2022-11-01T19:02:21.497Z,6.17
2022-11-01T19:04:52.236Z,7.30
2022-11-01T19:07:22.722Z,6.23
2022-11-01T19:09:54.745Z,8.93
2022-11-01T19:12:28.203Z,10.10
2022-11-01T19:14:59.610Z,10.60
2022-11-01T19:17:29.137Z,9.27
2022-11-01T19:19:59.663Z,12.83
2022-11-01T19:22:38.084Z,13.47
2022-11-01T19:25:19.657Z,14.43
2022-11-01T19:27:48.709Z,10.10
2022-11-01T19:30:24.290Z,10.97
2022-11-01T19:32:54.827Z,11.80
2022-11-01T19:35:23.647Z,12.93
2022-11-01T19:37:55.742Z,10.87
2022-11-01T19:40:28.793Z,10.57
2022-11-01T19:42:58.553Z,11.77
2022-11-01T19:45:31.685Z,9.27
2022-11-01T19:48:00.591Z,7.20
2022-11-01T19:50:38.202Z,7.77
2022-11-01T19:53:17.346Z,9.27
2022-11-01T19:55:52.592Z,11.30
2022-11-01T19:58:29.973Z,13.20
2022-11-01T20:01:21.138Z,8.10
2022-11-01T20:03:52.131Z,9.80
2022-11-01T20:06:23.673Z,8.57
2022-11-01T20:08:54.543Z,7.30
2022-11-01T20:11:23.686Z,9.33
2022-11-01T20:13:51.455Z,8.37
2022-11-01T20:16:19.321Z,6.97
2022-11-01T20:18:48.119Z,8.53
2022-11-01T20:21:15.962Z,9.80
2022-11-01T20:23:44.560Z,11.43
2022-11-01T20:26:13.234Z,8.40
2022-11-01T20:28:42.880Z,10.87
2022-11-01T20:31:10.786Z,11.77
2022-11-01T20:33:38.977Z,10.93
2022-11-01T20:36:11.244Z,12.50
2022-11-01T20:38:39.713Z,18.23
2022-11-01T20:41:07.635Z,12.60
2022-11-01T20:43:35.411Z,10.70
2022-11-01T20:46:04.605Z,12.20
2022-11-01T20:48:32.383Z,10.43
2022-11-01T20:51:00.253Z,14.80
2022-11-01T20:53:29.880Z,11.93
2022-11-01T20:55:57.858Z,10.57
2022-11-01T20:58:26.062Z,13.30
2022-11-01T21:00:53.907Z,10.03
2022-11-01T21:03:24.407Z,9.97
2022-11-01T21:05:52.806Z,8.60
2022-11-01T21:08:23.862Z,8.23
2022-11-01T21:10:57.452Z,9.67
2022-11-01T21:13:28.246Z,9.47
2022-11-01T21:15:57.700Z,11.57
2022-11-01T21:18:44.090Z,8.30
2022-11-01T21:21:34.691Z,9.80
2022-11-01T21:24:30.152Z,11.33
2022-11-01T21:27:26.108Z,8.07
2022-11-01T21:29:59.618Z,8.17
2022-11-01T21:32:30.653Z,9.40
2022-11-01T21:34:59.835Z,8.47
2022-11-01T21:37:29.795Z,11.70
2022-11-01T21:40:05.753Z,8.57
2022-11-01T21:42:36.927Z,9.90
2022-11-01T21:45:29.556Z,7.30
2022-11-01T21:48:01.084Z,8.30
2022-11-01T21:50:30.471Z,7.73
2022-11-01T21:52:58.282Z,7.17
2022-11-01T21:55:26.044Z,6.13
2022-11-01T21:57:53.855Z,10.70
2022-11-01T22:00:21.638Z,6.23
2022-11-01T22:02:49.439Z,8.23
2022-11-01T22:05:17.190Z,6.77
2022-11-01T22:07:46.299Z,6.97
2022-11-01T22:10:14.031Z,5.57
2022-11-01T22:12:41.798Z,6.10
2022-11-01T22:15:10.362Z,7.40
2022-11-01T22:17:38.130Z,7.50
2022-11-01T22:20:06.743Z,6.67
2022-11-01T22:22:34.527Z,6.97
2022-11-01T22:25:03.695Z,6.93
2022-11-01T22:27:31.506Z,9.63
2022-11-01T22:29:59.279Z,9.00
2022-11-01T22:32:27.074Z,6.43
2022-11-01T22:34:54.890Z,5.50
2022-11-01T22:37:22.678Z,7.73
2022-11-01T22:39:53.083Z,7.13
2022-11-01T22:42:23.165Z,4.97
2022-11-01T22:44:51.570Z,7.87
2022-11-01T22:47:25.794Z,4.73
2022-11-01T22:49:55.699Z,6.97
2022-11-01T22:52:32.138Z,5.60
2022-11-01T22:55:03.864Z,5.23
2022-11-01T22:57:37.291Z,6.50
2022-11-01T23:00:26.483Z,6.13
2022-11-01T23:02:59.692Z,7.30
2022-11-01T23:05:28.222Z,4.97
2022-11-01T23:07:57.531Z,5.47
2022-11-01T23:10:28.286Z,9.00
2022-11-01T23:13:19.677Z,6.80
2022-11-01T23:15:47.633Z,6.23
2022-11-01T23:18:22.810Z,4.67
2022-11-01T23:20:55.767Z,6.03
2022-11-01T23:23:24.041Z,5.83
2022-11-01T23:25:52.945Z,5.87
2022-11-01T23:28:24.293Z,6.30
2022-11-01T23:30:53.714Z,5.50
2022-11-01T23:33:23.083Z,6.07
2022-11-01T23:35:53.456Z,5.47
2022-11-01T23:38:24.087Z,5.27
2022-11-01T23:40:54.405Z,6.10
2022-11-01T23:43:28.787Z,6.87
2022-11-01T23:45:56.748Z,5.10
2022-11-01T23:48:25.282Z,6.67
2022-11-01T23:50:54.192Z,5.83
2022-11-01T23:53:26.297Z,7.67
2022-11-01T23:55:55.451Z,6.03
